map of AKJ home
AKJ - Airport
Location
City:  Asahikawa, Hokkaido, Japan
ICAO:RJEC
IATA:AKJ

Details
Type:Airport (Aerodrome, Airfield)
Use:Public/Civil
Latitude:4340'15"N (43.670833)
Longitude:14226'51"E (142.447500)
Datum:WGS 1984
Elevation:721 ft (220 m)
Variation:9.55W (WMM2015 magnetic declination)
-0.04 annual change
Runways:1
Longest:8200 × 200 ft (2499 × 61 m), paved

Time
Time Zone:UTC+9
Local Time:

Weather
METAR:RJEC 170900Z 32003KT 7000 -SHSN FEW010 SCT023 BKN035 M01/M03 Q1003
TAF:RJEC 170507Z 1706/1812 29003KT 9999 FEW008 BKN015
TEMPO 1706/1709 2000 -SHSN FEW005 BKN008
BECMG 1708/1710 17009KT
TEMPO 1718/1800 2000 -SHSN FEW005 BKN008
TEMPO 1800/1806 3000 -SHSN
TEMPO 1806/1812 1500 -SHSN FEW004 BKN006

Related Locations
Nearby:
Farthest:PSY: 11348 mi / 18263 km
Stanley (Port Stanley) [Port Stanley], FK

Find:

   beyond  
but within

Other Information
Maps:
NOTAMs:
Links:
Sources:

  
  • flag of Japan
  • flag of Hokkaido
  • flag of Asahikawa
  

Sectional Chart

Flight Planning
at skyvector.com

Satellite Image

Google Maps Satellite view

 

Copyright © 2004-2018 Karl L. Swartz. All rights reserved.
The Great Circle Mapper name and logo are trademarks of the Great Circle Mapper.
All other trademarks mentioned herein belong to their respective owners.
Please see credits for attibutions and further copyright information.

  Follow gcmap on Facebook Follow gcmap on Twitter Follow gcmap on Google+ GCmap on LinkedIn

hCard Microformat

Geo Microformat